createdAt,value
2022-09-11T00:03:47.216Z,101651.03
2022-09-11T00:09:08.131Z,101643.38
2022-09-11T00:14:28.964Z,101648.66
2022-09-11T00:19:49.667Z,101657.50
2022-09-11T00:25:10.720Z,101661.13
2022-09-11T00:30:31.077Z,101663.88
2022-09-11T00:35:58.321Z,101655.38
2022-09-11T00:41:23.360Z,101657.06
2022-09-11T00:46:53.696Z,101649.56
2022-09-11T00:52:19.786Z,101658.22
2022-09-11T00:57:56.476Z,101659.22
2022-09-11T01:03:17.233Z,101674.69
2022-09-11T01:08:38.631Z,101674.81
2022-09-11T01:14:12.228Z,101666.34
2022-09-11T01:19:46.495Z,101665.50
2022-09-11T01:25:27.961Z,101669.84
2022-09-11T01:30:56.659Z,101666.44
2022-09-11T01:36:22.913Z,101670.00
2022-09-11T01:42:03.341Z,101679.47
2022-09-11T01:47:25.862Z,101671.84
2022-09-11T01:52:59.978Z,101671.94
2022-09-11T01:58:26.573Z,101672.00
2022-09-11T02:04:05.077Z,101668.66
2022-09-11T02:09:37.830Z,101679.84
2022-09-11T02:14:59.596Z,101676.38
2022-09-11T02:20:20.993Z,101683.34
2022-09-11T02:25:41.795Z,101673.91
2022-09-11T02:31:04.129Z,101667.91
2022-09-11T02:36:51.833Z,101676.53
2022-09-11T02:42:24.443Z,101683.38
2022-09-11T02:48:02.722Z,101684.34
2022-09-11T02:53:43.344Z,101687.91
2022-09-11T02:59:13.593Z,101689.66
2022-09-11T03:04:35.664Z,101690.50
2022-09-11T03:09:57.310Z,101697.44
2022-09-11T03:15:20.645Z,101709.47
2022-09-11T03:20:46.901Z,101711.25
2022-09-11T03:26:07.819Z,101712.72
2022-09-11T03:31:28.693Z,101715.53
2022-09-11T03:36:50.206Z,101720.50
2022-09-11T03:42:13.024Z,101723.31
2022-09-11T03:47:33.494Z,101716.38
2022-09-11T03:52:54.324Z,101722.34
2022-09-11T03:58:16.006Z,101728.25
2022-09-11T04:03:39.429Z,101729.09
2022-09-11T04:09:03.235Z,101730.72
2022-09-11T04:14:23.959Z,101735.84
2022-09-11T04:19:46.516Z,101742.69
2022-09-11T04:25:08.100Z,101739.25
2022-09-11T04:30:29.788Z,101740.06
2022-09-11T04:35:50.802Z,101749.38
2022-09-11T04:41:12.345Z,101750.16
2022-09-11T04:46:34.549Z,101750.09
2022-09-11T04:51:57.821Z,101748.44
2022-09-11T04:57:18.643Z,101754.47
2022-09-11T05:02:40.615Z,101757.06
2022-09-11T05:08:03.928Z,101755.28
2022-09-11T05:13:25.787Z,101757.81
2022-09-11T05:18:54.302Z,101760.38
2022-09-11T05:24:16.265Z,101773.19
2022-09-11T05:29:38.585Z,101767.09
2022-09-11T05:35:04.475Z,101772.22
2022-09-11T05:40:25.244Z,101787.59
2022-09-11T05:45:55.261Z,101785.03
2022-09-11T05:51:24.672Z,101788.28
2022-09-11T05:56:46.009Z,101798.47
2022-09-11T06:02:15.564Z,101809.41
2022-09-11T06:07:42.247Z,101806.53
2022-09-11T06:13:03.127Z,101806.16
2022-09-11T06:18:26.883Z,101806.56
2022-09-11T06:23:50.129Z,101801.88
2022-09-11T06:29:14.848Z,101810.16
2022-09-11T06:34:38.419Z,101813.38
2022-09-11T06:40:04.727Z,101807.84
2022-09-11T06:45:26.129Z,101819.38
2022-09-11T06:50:47.571Z,101822.44
2022-09-11T06:56:12.875Z,101821.38
2022-09-11T07:01:35.037Z,101827.25
2022-09-11T07:06:57.107Z,101826.16
2022-09-11T07:12:20.371Z,101825.75
2022-09-11T07:17:42.119Z,101825.59
2022-09-11T07:23:06.136Z,101826.16
2022-09-11T07:28:29.064Z,101820.84
2022-09-11T07:33:52.404Z,101826.72
2022-09-11T07:39:15.998Z,101822.44
2022-09-11T07:44:55.559Z,101825.78
2022-09-11T07:50:18.027Z,101831.25
2022-09-11T07:55:39.111Z,101834.09
2022-09-11T08:01:00.412Z,101832.66
2022-09-11T08:06:22.574Z,101838.56
2022-09-11T08:11:48.725Z,101837.34
2022-09-11T08:17:11.597Z,101846.06
2022-09-11T08:22:33.747Z,101855.19
2022-09-11T08:27:54.884Z,101855.66
2022-09-11T08:33:19.294Z,101863.00
2022-09-11T08:38:39.590Z,101871.25
2022-09-11T08:44:12.034Z,101859.78
2022-09-11T08:49:47.955Z,101870.06
2022-09-11T08:55:35.856Z,101875.44
2022-09-11T09:01:37.228Z,101870.75
2022-09-11T09:07:26.836Z,101875.34
2022-09-11T09:13:05.249Z,101881.16
2022-09-11T09:18:34.675Z,101880.16
2022-09-11T09:23:59.075Z,101879.16
2022-09-11T09:29:28.492Z,101873.72
2022-09-11T09:34:55.310Z,101872.94
2022-09-11T09:40:18.976Z,101870.59
2022-09-11T09:46:01.559Z,101870.22
2022-09-11T09:51:22.187Z,101891.34
2022-09-11T09:56:49.321Z,101880.00
2022-09-11T10:02:10.099Z,101887.91
2022-09-11T10:07:33.442Z,101892.28
2022-09-11T10:13:18.017Z,101886.06
2022-09-11T10:18:42.727Z,101890.44
2022-09-11T10:24:23.214Z,101891.75
2022-09-11T10:29:50.340Z,101896.19
2022-09-11T10:35:11.035Z,101895.97
2022-09-11T10:40:31.555Z,101900.44
2022-09-11T10:46:25.581Z,101900.91
2022-09-11T10:52:24.524Z,101888.63
2022-09-11T10:57:52.821Z,101892.53
2022-09-11T11:03:19.862Z,101897.50
2022-09-11T11:09:13.380Z,101896.81
2022-09-11T11:14:45.351Z,101894.78
2022-09-11T11:20:33.933Z,101895.81
2022-09-11T11:26:17.633Z,101898.59
2022-09-11T11:31:44.537Z,101906.47
2022-09-11T11:37:13.579Z,101904.97
2022-09-11T11:42:46.817Z,101912.59
2022-09-11T11:48:34.569Z,101907.88
2022-09-11T11:54:17.450Z,101912.88
2022-09-11T12:00:06.001Z,101913.59
2022-09-11T12:05:34.569Z,101899.50
2022-09-11T12:11:00.405Z,101901.13
2022-09-11T12:16:31.520Z,101893.84
2022-09-11T12:21:52.148Z,101902.09
2022-09-11T12:27:34.239Z,101904.47
2022-09-11T12:32:57.014Z,101908.59
2022-09-11T12:38:30.172Z,101901.97
2022-09-11T12:43:50.769Z,101908.28
2022-09-11T12:49:22.658Z,101905.66
2022-09-11T12:54:44.555Z,101910.47
2022-09-11T13:00:11.797Z,101901.94
2022-09-11T13:05:39.808Z,101900.19
2022-09-11T13:11:37.594Z,101899.03
2022-09-11T13:17:12.055Z,101899.72
2022-09-11T13:22:34.903Z,101903.72
2022-09-11T13:28:02.144Z,101893.00
2022-09-11T13:33:29.017Z,101887.09
2022-09-11T13:38:54.468Z,101891.78
2022-09-11T13:44:39.588Z,101886.03
2022-09-11T13:50:09.445Z,101874.59
2022-09-11T13:55:31.241Z,101866.53
2022-09-11T14:00:54.806Z,101854.94
2022-09-11T14:06:19.425Z,101858.91
2022-09-11T14:11:40.148Z,101864.97
2022-09-11T14:17:03.889Z,101861.53
2022-09-11T14:22:31.083Z,101849.34
2022-09-11T14:35:24.076Z,101849.81
2022-09-11T14:40:51.676Z,101852.97
2022-09-11T14:46:12.253Z,101854.81
2022-09-11T14:51:33.158Z,101851.38
2022-09-11T14:56:53.999Z,101857.63
2022-09-11T15:02:17.122Z,101846.25
2022-09-11T15:07:37.655Z,101854.78
2022-09-11T15:12:58.667Z,101847.50
2022-09-11T15:18:20.838Z,101855.34
2022-09-11T15:23:41.289Z,101859.91
2022-09-11T15:29:01.726Z,101847.59
2022-09-11T15:34:23.143Z,101842.09
2022-09-11T15:39:44.202Z,101832.50
2022-09-11T15:45:05.772Z,101834.44
2022-09-11T15:50:29.951Z,101835.31
2022-09-11T15:55:50.210Z,101831.81
2022-09-11T16:01:19.725Z,101828.66
2022-09-11T16:06:43.058Z,101817.00
2022-09-11T16:12:03.571Z,101817.38
2022-09-11T16:17:30.638Z,101817.13
2022-09-11T16:22:51.047Z,101803.06
2022-09-11T16:28:12.174Z,101800.13
2022-09-11T16:33:36.212Z,101791.22
2022-09-11T16:38:57.243Z,101802.59
2022-09-11T16:44:17.885Z,101791.22
2022-09-11T16:50:03.253Z,101797.25
2022-09-11T16:55:20.167Z,101802.97
2022-09-11T17:00:43.007Z,101787.44
2022-09-11T17:06:06.640Z,101779.59
2022-09-11T17:11:29.058Z,101777.28
2022-09-11T17:16:50.027Z,101779.94
2022-09-11T17:22:10.794Z,101792.25
2022-09-11T17:27:31.855Z,101792.09
2022-09-11T17:32:52.801Z,101788.06
2022-09-11T17:38:13.048Z,101782.41
2022-09-11T17:43:35.297Z,101783.50
2022-09-11T17:48:55.917Z,101778.69
2022-09-11T17:54:16.867Z,101782.63
2022-09-11T17:59:37.256Z,101784.25
2022-09-11T18:04:57.956Z,101788.56
2022-09-11T18:10:21.431Z,101791.47
2022-09-11T18:15:43.908Z,101792.81
2022-09-11T18:21:06.725Z,101794.00
2022-09-11T18:26:29.796Z,101787.66
2022-09-11T18:31:53.367Z,101788.06
2022-09-11T18:37:17.150Z,101795.03
2022-09-11T18:42:37.861Z,101802.09
2022-09-11T18:48:00.081Z,101801.03
2022-09-11T18:53:20.805Z,101802.00
2022-09-11T18:58:41.793Z,101798.03
2022-09-11T19:04:06.729Z,101801.94
2022-09-11T19:09:29.204Z,101807.91
2022-09-11T19:14:50.158Z,101802.44
2022-09-11T19:20:12.132Z,101804.69
2022-09-11T19:25:35.264Z,101805.19
2022-09-11T19:30:58.266Z,101808.25
2022-09-11T19:36:21.758Z,101809.56
2022-09-11T19:41:42.357Z,101811.69
2022-09-11T19:47:03.556Z,101815.56
2022-09-11T19:52:24.989Z,101812.41
2022-09-11T19:57:45.361Z,101803.97
2022-09-11T20:03:06.142Z,101803.56
2022-09-11T20:08:26.865Z,101807.31
2022-09-11T20:13:48.040Z,101799.88
2022-09-11T20:19:09.869Z,101791.41
2022-09-11T20:24:32.619Z,101796.81
2022-09-11T20:29:54.567Z,101799.81
2022-09-11T20:35:16.565Z,101802.63
2022-09-11T20:40:37.997Z,101791.72
2022-09-11T20:46:00.434Z,101794.59
2022-09-11T20:51:22.800Z,101802.72
2022-09-11T20:56:44.435Z,101790.84
2022-09-11T21:02:05.363Z,101790.06
2022-09-11T21:07:25.825Z,101790.22
2022-09-11T21:12:46.291Z,101793.06
2022-09-11T21:18:10.759Z,101790.59
2022-09-11T21:23:31.423Z,101784.94
2022-09-11T21:28:52.896Z,101776.34
2022-09-11T21:34:13.406Z,101781.56
2022-09-11T21:39:34.012Z,101780.81
2022-09-11T21:44:58.854Z,101770.59
2022-09-11T21:50:19.616Z,101772.41
2022-09-11T21:55:42.467Z,101765.59
2022-09-11T22:01:08.575Z,101765.75
2022-09-11T22:06:30.487Z,101765.91
2022-09-11T22:11:51.440Z,101777.19
2022-09-11T22:17:12.633Z,101771.34
2022-09-11T22:22:40.345Z,101768.88
2022-09-11T22:28:00.925Z,101768.06
2022-09-11T22:33:21.582Z,101765.50
2022-09-11T22:38:42.879Z,101757.00
2022-09-11T22:44:04.448Z,101754.53
2022-09-11T22:49:25.165Z,101768.56
2022-09-11T22:54:47.486Z,101766.22
2022-09-11T23:00:11.026Z,101760.22
2022-09-11T23:05:50.888Z,101764.47
2022-09-11T23:11:15.127Z,101749.09
2022-09-11T23:16:35.811Z,101750.03
2022-09-11T23:23:11.787Z,101746.66
2022-09-11T23:28:34.326Z,101749.44
2022-09-11T23:33:57.225Z,101734.88
2022-09-11T23:39:17.746Z,101737.56
2022-09-11T23:44:38.333Z,101729.00
2022-09-11T23:49:58.773Z,101729.84
2022-09-11T23:55:19.526Z,101731.66
